sensor_id;sensor_type;location;lat;lon;timestamp;P1;durP1;ratioP1;P2;durP2;ratioP2
35909;SDS011;22004;49.120;-0.200;2023-03-29T00:00:18;12.05;;;3.25;;
35909;SDS011;22004;49.120;-0.200;2023-03-29T00:02:45;4.65;;;2.80;;
35909;SDS011;22004;49.120;-0.200;2023-03-29T00:05:12;9.30;;;3.10;;
35909;SDS011;22004;49.120;-0.200;2023-03-29T00:07:39;16.80;;;3.42;;
35909;SDS011;22004;49.120;-0.200;2023-03-29T00:10:05;19.13;;;3.65;;
35909;SDS011;22004;49.120;-0.200;2023-03-29T00:12:32;7.28;;;2.80;;
35909;SDS011;22004;49.120;-0.200;2023-03-29T00:14:57;8.88;;;3.20;;
35909;SDS011;22004;49.120;-0.200;2023-03-29T00:17:23;10.75;;;3.53;;
35909;SDS011;22004;49.120;-0.200;2023-03-29T00:19:48;9.13;;;3.33;;
35909;SDS011;22004;49.120;-0.200;2023-03-29T00:22:13;13.85;;;3.42;;
35909;SDS011;22004;49.120;-0.200;2023-03-29T00:24:39;12.35;;;3.40;;
35909;SDS011;22004;49.120;-0.200;2023-03-29T00:27:05;10.98;;;3.10;;
35909;SDS011;22004;49.120;-0.200;2023-03-29T00:29:30;11.98;;;2.80;;
35909;SDS011;22004;49.120;-0.200;2023-03-29T00:31:56;10.32;;;2.97;;
35909;SDS011;22004;49.120;-0.200;2023-03-29T00:34:22;14.65;;;3.33;;
35909;SDS011;22004;49.120;-0.200;2023-03-29T00:36:48;12.20;;;3.38;;
35909;SDS011;22004;49.120;-0.200;2023-03-29T00:39:16;8.77;;;3.08;;
35909;SDS011;22004;49.120;-0.200;2023-03-29T00:41:44;10.63;;;2.90;;
35909;SDS011;22004;49.120;-0.200;2023-03-29T00:44:51;12.43;;;3.53;;
35909;SDS011;22004;49.120;-0.200;2023-03-29T00:47:26;13.43;;;3.30;;
35909;SDS011;22004;49.120;-0.200;2023-03-29T00:49:55;6.50;;;3.17;;
35909;SDS011;22004;49.120;-0.200;2023-03-29T00:52:26;16.73;;;3.58;;
35909;SDS011;22004;49.120;-0.200;2023-03-29T00:54:56;9.75;;;2.90;;
35909;SDS011;22004;49.120;-0.200;2023-03-29T00:57:26;13.15;;;3.50;;
35909;SDS011;22004;49.120;-0.200;2023-03-29T00:59:54;10.43;;;3.17;;
35909;SDS011;22004;49.120;-0.200;2023-03-29T01:02:21;12.45;;;2.80;;
35909;SDS011;22004;49.120;-0.200;2023-03-29T01:04:53;10.10;;;3.03;;
35909;SDS011;22004;49.120;-0.200;2023-03-29T01:07:27;9.02;;;2.95;;
35909;SDS011;22004;49.120;-0.200;2023-03-29T01:12:32;7.25;;;2.80;;
35909;SDS011;22004;49.120;-0.200;2023-03-29T01:15:08;9.75;;;2.92;;
35909;SDS011;22004;49.120;-0.200;2023-03-29T01:17:36;12.10;;;2.78;;
35909;SDS011;22004;49.120;-0.200;2023-03-29T01:20:03;13.93;;;3.08;;
35909;SDS011;22004;49.120;-0.200;2023-03-29T01:28:22;11.95;;;3.20;;
35909;SDS011;22004;49.120;-0.200;2023-03-29T01:30:55;8.93;;;3.15;;
35909;SDS011;22004;49.120;-0.200;2023-03-29T01:33:33;9.52;;;2.92;;
35909;SDS011;22004;49.120;-0.200;2023-03-29T01:38:57;10.90;;;2.92;;
35909;SDS011;22004;49.120;-0.200;2023-03-29T01:41:32;14.25;;;3.33;;
35909;SDS011;22004;49.120;-0.200;2023-03-29T01:44:04;10.32;;;2.70;;
35909;SDS011;22004;49.120;-0.200;2023-03-29T01:46:33;10.30;;;2.95;;
35909;SDS011;22004;49.120;-0.200;2023-03-29T01:49:04;10.85;;;2.80;;
35909;SDS011;22004;49.120;-0.200;2023-03-29T01:51:37;12.70;;;4.18;;
35909;SDS011;22004;49.120;-0.200;2023-03-29T01:56:40;7.85;;;2.80;;
35909;SDS011;22004;49.120;-0.200;2023-03-29T01:59:12;12.63;;;3.45;;
35909;SDS011;22004;49.120;-0.200;2023-03-29T02:01:44;9.27;;;2.83;;
35909;SDS011;22004;49.120;-0.200;2023-03-29T02:04:14;13.95;;;3.10;;
35909;SDS011;22004;49.120;-0.200;2023-03-29T02:06:44;12.30;;;3.38;;
35909;SDS011;22004;49.120;-0.200;2023-03-29T02:09:11;8.25;;;3.35;;
35909;SDS011;22004;49.120;-0.200;2023-03-29T02:11:37;9.52;;;3.05;;
35909;SDS011;22004;49.120;-0.200;2023-03-29T02:14:05;11.45;;;3.28;;
35909;SDS011;22004;49.120;-0.200;2023-03-29T02:16:37;7.72;;;2.78;;
35909;SDS011;22004;49.120;-0.200;2023-03-29T02:19:03;16.25;;;4.95;;
35909;SDS011;22004;49.120;-0.200;2023-03-29T02:21:33;11.75;;;2.97;;
35909;SDS011;22004;49.120;-0.200;2023-03-29T02:24:17;11.38;;;3.17;;
35909;SDS011;22004;49.120;-0.200;2023-03-29T02:26:45;13.02;;;4.05;;
35909;SDS011;22004;49.120;-0.200;2023-03-29T02:29:12;12.20;;;3.75;;
35909;SDS011;22004;49.120;-0.200;2023-03-29T02:34:50;7.38;;;2.65;;
35909;SDS011;22004;49.120;-0.200;2023-03-29T02:37:20;8.57;;;3.15;;
35909;SDS011;22004;49.120;-0.200;2023-03-29T02:39:50;11.77;;;3.40;;
35909;SDS011;22004;49.120;-0.200;2023-03-29T02:42:17;17.00;;;3.22;;
35909;SDS011;22004;49.120;-0.200;2023-03-29T02:44:44;11.88;;;3.85;;
35909;SDS011;22004;49.120;-0.200;2023-03-29T02:47:30;11.90;;;3.28;;
35909;SDS011;22004;49.120;-0.200;2023-03-29T02:50:01;21.08;;;3.58;;
35909;SDS011;22004;49.120;-0.200;2023-03-29T02:52:28;13.18;;;3.38;;
35909;SDS011;22004;49.120;-0.200;2023-03-29T02:54:58;9.98;;;3.17;;
35909;SDS011;22004;49.120;-0.200;2023-03-29T02:57:27;16.17;;;4.03;;
35909;SDS011;22004;49.120;-0.200;2023-03-29T02:59:54;10.75;;;3.40;;
35909;SDS011;22004;49.120;-0.200;2023-03-29T03:02:21;16.00;;;3.47;;
35909;SDS011;22004;49.120;-0.200;2023-03-29T03:04:49;13.90;;;3.72;;
35909;SDS011;22004;49.120;-0.200;2023-03-29T03:07:15;22.25;;;4.68;;
35909;SDS011;22004;49.120;-0.200;2023-03-29T03:09:40;12.73;;;3.78;;
35909;SDS011;22004;49.120;-0.200;2023-03-29T03:12:06;16.30;;;4.13;;
35909;SDS011;22004;49.120;-0.200;2023-03-29T03:14:32;17.38;;;4.25;;
35909;SDS011;22004;49.120;-0.200;2023-03-29T03:16:58;16.00;;;4.80;;
35909;SDS011;22004;49.120;-0.200;2023-03-29T03:19:23;14.00;;;3.10;;
35909;SDS011;22004;49.120;-0.200;2023-03-29T03:21:49;19.42;;;3.90;;
35909;SDS011;22004;49.120;-0.200;2023-03-29T03:24:14;20.30;;;4.88;;
35909;SDS011;22004;49.120;-0.200;2023-03-29T03:26:41;15.25;;;4.25;;
35909;SDS011;22004;49.120;-0.200;2023-03-29T03:29:10;13.40;;;3.90;;
35909;SDS011;22004;49.120;-0.200;2023-03-29T03:31:36;11.57;;;3.65;;
35909;SDS011;22004;49.120;-0.200;2023-03-29T03:34:01;11.63;;;3.88;;
35909;SDS011;22004;49.120;-0.200;2023-03-29T03:36:27;13.35;;;3.95;;
35909;SDS011;22004;49.120;-0.200;2023-03-29T03:38:53;10.15;;;3.35;;
35909;SDS011;22004;49.120;-0.200;2023-03-29T03:41:18;18.90;;;5.60;;
35909;SDS011;22004;49.120;-0.200;2023-03-29T03:43:43;16.95;;;4.15;;
35909;SDS011;22004;49.120;-0.200;2023-03-29T03:46:12;18.50;;;4.35;;
35909;SDS011;22004;49.120;-0.200;2023-03-29T03:48:41;24.35;;;5.32;;
35909;SDS011;22004;49.120;-0.200;2023-03-29T03:51:07;14.88;;;4.35;;
35909;SDS011;22004;49.120;-0.200;2023-03-29T03:53:33;15.40;;;4.20;;
35909;SDS011;22004;49.120;-0.200;2023-03-29T03:55:58;15.32;;;4.88;;
35909;SDS011;22004;49.120;-0.200;2023-03-29T03:58:26;12.93;;;3.53;;
35909;SDS011;22004;49.120;-0.200;2023-03-29T04:00:52;18.17;;;4.93;;
35909;SDS011;22004;49.120;-0.200;2023-03-29T04:03:18;15.23;;;3.90;;
35909;SDS011;22004;49.120;-0.200;2023-03-29T04:05:44;18.98;;;4.45;;
35909;SDS011;22004;49.120;-0.200;2023-03-29T04:08:11;12.25;;;3.38;;
35909;SDS011;22004;49.120;-0.200;2023-03-29T04:10:37;16.33;;;3.75;;
35909;SDS011;22004;49.120;-0.200;2023-03-29T04:13:03;15.73;;;4.53;;
35909;SDS011;22004;49.120;-0.200;2023-03-29T04:15:29;16.60;;;4.10;;
35909;SDS011;22004;49.120;-0.200;2023-03-29T04:17:56;16.13;;;3.72;;
35909;SDS011;22004;49.120;-0.200;2023-03-29T04:20:22;16.50;;;4.68;;
35909;SDS011;22004;49.120;-0.200;2023-03-29T04:22:48;10.40;;;3.50;;
35909;SDS011;22004;49.120;-0.200;2023-03-29T04:25:14;17.35;;;3.60;;
35909;SDS011;22004;49.120;-0.200;2023-03-29T04:27:40;17.35;;;3.42;;
35909;SDS011;22004;49.120;-0.200;2023-03-29T04:30:06;16.85;;;4.45;;
35909;SDS011;22004;49.120;-0.200;2023-03-29T04:32:33;20.73;;;4.80;;
35909;SDS011;22004;49.120;-0.200;2023-03-29T04:34:59;12.10;;;3.97;;
35909;SDS011;22004;49.120;-0.200;2023-03-29T04:37:25;16.45;;;3.78;;
35909;SDS011;22004;49.120;-0.200;2023-03-29T04:39:51;18.63;;;4.30;;
35909;SDS011;22004;49.120;-0.200;2023-03-29T04:42:18;12.88;;;3.72;;
35909;SDS011;22004;49.120;-0.200;2023-03-29T04:44:44;14.80;;;3.45;;
35909;SDS011;22004;49.120;-0.200;2023-03-29T04:47:09;9.50;;;3.20;;
35909;SDS011;22004;49.120;-0.200;2023-03-29T04:49:38;13.82;;;3.45;;
35909;SDS011;22004;49.120;-0.200;2023-03-29T04:52:04;14.88;;;3.50;;
35909;SDS011;22004;49.120;-0.200;2023-03-29T04:54:30;7.55;;;2.88;;
35909;SDS011;22004;49.120;-0.200;2023-03-29T04:56:56;11.00;;;3.72;;
35909;SDS011;22004;49.120;-0.200;2023-03-29T04:59:21;12.18;;;3.55;;
35909;SDS011;22004;49.120;-0.200;2023-03-29T05:01:46;11.93;;;3.42;;
35909;SDS011;22004;49.120;-0.200;2023-03-29T05:04:12;21.48;;;5.15;;
35909;SDS011;22004;49.120;-0.200;2023-03-29T05:06:38;19.02;;;4.85;;
35909;SDS011;22004;49.120;-0.200;2023-03-29T05:09:04;12.48;;;3.92;;
35909;SDS011;22004;49.120;-0.200;2023-03-29T05:11:30;17.25;;;4.03;;
35909;SDS011;22004;49.120;-0.200;2023-03-29T05:13:56;18.20;;;3.88;;
35909;SDS011;22004;49.120;-0.200;2023-03-29T05:16:26;14.23;;;3.83;;
35909;SDS011;22004;49.120;-0.200;2023-03-29T05:18:54;11.65;;;3.67;;
35909;SDS011;22004;49.120;-0.200;2023-03-29T05:21:20;10.70;;;3.33;;
35909;SDS011;22004;49.120;-0.200;2023-03-29T05:23:45;11.68;;;3.85;;
35909;SDS011;22004;49.120;-0.200;2023-03-29T05:26:11;10.13;;;3.97;;
35909;SDS011;22004;49.120;-0.200;2023-03-29T05:28:39;10.60;;;3.63;;
35909;SDS011;22004;49.120;-0.200;2023-03-29T05:31:04;14.27;;;4.10;;
35909;SDS011;22004;49.120;-0.200;2023-03-29T05:33:30;12.65;;;4.03;;
35909;SDS011;22004;49.120;-0.200;2023-03-29T05:36:02;12.80;;;4.25;;
35909;SDS011;22004;49.120;-0.200;2023-03-29T05:38:29;15.38;;;5.18;;
35909;SDS011;22004;49.120;-0.200;2023-03-29T05:40:56;10.60;;;3.53;;
35909;SDS011;22004;49.120;-0.200;2023-03-29T05:43:22;18.88;;;5.03;;
35909;SDS011;22004;49.120;-0.200;2023-03-29T05:45:47;10.40;;;3.75;;
35909;SDS011;22004;49.120;-0.200;2023-03-29T05:48:13;11.18;;;3.70;;
35909;SDS011;22004;49.120;-0.200;2023-03-29T05:50:38;9.75;;;4.00;;
35909;SDS011;22004;49.120;-0.200;2023-03-29T05:53:03;16.65;;;5.13;;
35909;SDS011;22004;49.120;-0.200;2023-03-29T05:55:29;12.45;;;4.25;;
35909;SDS011;22004;49.120;-0.200;2023-03-29T05:57:54;13.10;;;3.85;;
35909;SDS011;22004;49.120;-0.200;2023-03-29T06:00:20;20.65;;;5.18;;
35909;SDS011;22004;49.120;-0.200;2023-03-29T06:02:49;21.27;;;5.05;;
35909;SDS011;22004;49.120;-0.200;2023-03-29T06:05:19;12.75;;;4.32;;
35909;SDS011;22004;49.120;-0.200;2023-03-29T06:07:45;19.05;;;5.20;;
35909;SDS011;22004;49.120;-0.200;2023-03-29T06:10:13;13.88;;;4.95;;
35909;SDS011;22004;49.120;-0.200;2023-03-29T06:12:39;20.23;;;5.10;;
35909;SDS011;22004;49.120;-0.200;2023-03-29T06:15:05;18.65;;;5.47;;
35909;SDS011;22004;49.120;-0.200;2023-03-29T06:17:31;18.75;;;5.38;;
35909;SDS011;22004;49.120;-0.200;2023-03-29T06:19:57;24.23;;;5.43;;
35909;SDS011;22004;49.120;-0.200;2023-03-29T06:22:23;19.08;;;5.28;;
35909;SDS011;22004;49.120;-0.200;2023-03-29T06:24:48;15.18;;;5.35;;
35909;SDS011;22004;49.120;-0.200;2023-03-29T06:27:14;15.48;;;4.85;;
35909;SDS011;22004;49.120;-0.200;2023-03-29T06:29:39;16.38;;;5.28;;
35909;SDS011;22004;49.120;-0.200;2023-03-29T06:32:05;13.93;;;5.18;;
35909;SDS011;22004;49.120;-0.200;2023-03-29T06:34:30;14.40;;;4.60;;
35909;SDS011;22004;49.120;-0.200;2023-03-29T06:36:56;17.30;;;5.05;;
35909;SDS011;22004;49.120;-0.200;2023-03-29T06:39:21;16.05;;;4.93;;
35909;SDS011;22004;49.120;-0.200;2023-03-29T06:41:47;19.05;;;4.97;;
35909;SDS011;22004;49.120;-0.200;2023-03-29T06:44:13;14.63;;;4.18;;
35909;SDS011;22004;49.120;-0.200;2023-03-29T06:46:39;14.13;;;4.90;;
35909;SDS011;22004;49.120;-0.200;2023-03-29T06:49:04;14.13;;;5.25;;
35909;SDS011;22004;49.120;-0.200;2023-03-29T06:51:30;18.05;;;4.85;;
35909;SDS011;22004;49.120;-0.200;2023-03-29T06:53:55;17.10;;;5.18;;
35909;SDS011;22004;49.120;-0.200;2023-03-29T06:56:20;12.23;;;5.22;;
35909;SDS011;22004;49.120;-0.200;2023-03-29T06:58:46;10.57;;;3.92;;
35909;SDS011;22004;49.120;-0.200;2023-03-29T07:01:12;10.65;;;4.10;;
35909;SDS011;22004;49.120;-0.200;2023-03-29T07:03:38;11.43;;;4.05;;
35909;SDS011;22004;49.120;-0.200;2023-03-29T07:06:04;10.90;;;4.00;;
35909;SDS011;22004;49.120;-0.200;2023-03-29T07:08:36;10.98;;;3.45;;
35909;SDS011;22004;49.120;-0.200;2023-03-29T07:11:07;16.88;;;4.53;;
35909;SDS011;22004;49.120;-0.200;2023-03-29T07:13:34;10.80;;;3.97;;
35909;SDS011;22004;49.120;-0.200;2023-03-29T07:15:59;11.90;;;4.25;;
35909;SDS011;22004;49.120;-0.200;2023-03-29T07:18:25;8.95;;;3.72;;
35909;SDS011;22004;49.120;-0.200;2023-03-29T07:20:50;8.27;;;3.53;;
35909;SDS011;22004;49.120;-0.200;2023-03-29T07:23:16;10.23;;;3.88;;
35909;SDS011;22004;49.120;-0.200;2023-03-29T07:25:42;11.05;;;4.20;;
35909;SDS011;22004;49.120;-0.200;2023-03-29T07:28:08;13.15;;;4.10;;
35909;SDS011;22004;49.120;-0.200;2023-03-29T07:30:35;12.45;;;4.53;;
35909;SDS011;22004;49.120;-0.200;2023-03-29T07:33:01;8.57;;;3.75;;
35909;SDS011;22004;49.120;-0.200;2023-03-29T07:35:26;13.13;;;4.55;;
35909;SDS011;22004;49.120;-0.200;2023-03-29T07:37:52;10.82;;;4.25;;
35909;SDS011;22004;49.120;-0.200;2023-03-29T07:40:19;10.90;;;3.88;;
35909;SDS011;22004;49.120;-0.200;2023-03-29T07:42:51;8.40;;;4.05;;
35909;SDS011;22004;49.120;-0.200;2023-03-29T07:45:18;12.68;;;4.25;;
35909;SDS011;22004;49.120;-0.200;2023-03-29T07:47:45;10.77;;;3.90;;
35909;SDS011;22004;49.120;-0.200;2023-03-29T07:50:12;14.55;;;4.03;;
35909;SDS011;22004;49.120;-0.200;2023-03-29T07:52:39;10.70;;;3.80;;
35909;SDS011;22004;49.120;-0.200;2023-03-29T07:55:05;11.30;;;3.63;;
35909;SDS011;22004;49.120;-0.200;2023-03-29T07:57:32;10.27;;;4.90;;
35909;SDS011;22004;49.120;-0.200;2023-03-29T07:59:58;10.65;;;4.38;;
35909;SDS011;22004;49.120;-0.200;2023-03-29T08:02:23;9.57;;;4.20;;
35909;SDS011;22004;49.120;-0.200;2023-03-29T08:04:49;12.60;;;4.93;;
35909;SDS011;22004;49.120;-0.200;2023-03-29T08:07:16;13.00;;;3.75;;
35909;SDS011;22004;49.120;-0.200;2023-03-29T08:09:45;10.48;;;3.75;;
35909;SDS011;22004;49.120;-0.200;2023-03-29T08:12:10;9.63;;;4.07;;
35909;SDS011;22004;49.120;-0.200;2023-03-29T08:14:36;11.90;;;4.10;;
35909;SDS011;22004;49.120;-0.200;2023-03-29T08:17:02;10.68;;;4.50;;
35909;SDS011;22004;49.120;-0.200;2023-03-29T08:19:28;10.65;;;3.85;;
35909;SDS011;22004;49.120;-0.200;2023-03-29T08:21:53;11.93;;;4.03;;
35909;SDS011;22004;49.120;-0.200;2023-03-29T08:24:19;12.60;;;4.20;;
35909;SDS011;22004;49.120;-0.200;2023-03-29T08:26:44;12.30;;;3.85;;
35909;SDS011;22004;49.120;-0.200;2023-03-29T08:29:10;12.63;;;3.97;;
35909;SDS011;22004;49.120;-0.200;2023-03-29T08:31:35;10.35;;;4.05;;
35909;SDS011;22004;49.120;-0.200;2023-03-29T08:34:01;11.48;;;4.35;;
35909;SDS011;22004;49.120;-0.200;2023-03-29T08:36:27;15.40;;;4.50;;
35909;SDS011;22004;49.120;-0.200;2023-03-29T08:38:52;15.55;;;4.65;;
35909;SDS011;22004;49.120;-0.200;2023-03-29T08:41:22;17.38;;;4.70;;
35909;SDS011;22004;49.120;-0.200;2023-03-29T08:44:15;6.00;;;3.20;;
35909;SDS011;22004;49.120;-0.200;2023-03-29T08:47:05;16.27;;;4.03;;
35909;SDS011;22004;49.120;-0.200;2023-03-29T08:49:40;12.85;;;4.32;;
35909;SDS011;22004;49.120;-0.200;2023-03-29T08:55:02;14.13;;;4.30;;
35909;SDS011;22004;49.120;-0.200;2023-03-29T08:57:34;12.68;;;4.05;;
35909;SDS011;22004;49.120;-0.200;2023-03-29T09:00:22;12.38;;;3.42;;
35909;SDS011;22004;49.120;-0.200;2023-03-29T09:02:56;19.30;;;4.30;;
35909;SDS011;22004;49.120;-0.200;2023-03-29T09:05:28;15.15;;;4.20;;
35909;SDS011;22004;49.120;-0.200;2023-03-29T09:07:59;17.50;;;4.95;;
35909;SDS011;22004;49.120;-0.200;2023-03-29T09:10:38;13.93;;;3.92;;
35909;SDS011;22004;49.120;-0.200;2023-03-29T09:15:39;11.88;;;4.00;;
35909;SDS011;22004;49.120;-0.200;2023-03-29T09:18:24;14.70;;;3.35;;
35909;SDS011;22004;49.120;-0.200;2023-03-29T09:21:04;17.38;;;3.95;;
35909;SDS011;22004;49.120;-0.200;2023-03-29T09:23:41;14.35;;;4.03;;
35909;SDS011;22004;49.120;-0.200;2023-03-29T09:26:20;14.75;;;4.28;;
35909;SDS011;22004;49.120;-0.200;2023-03-29T09:31:44;11.90;;;3.95;;
35909;SDS011;22004;49.120;-0.200;2023-03-29T09:34:14;20.27;;;4.53;;
35909;SDS011;22004;49.120;-0.200;2023-03-29T09:36:55;23.05;;;4.68;;
35909;SDS011;22004;49.120;-0.200;2023-03-29T09:39:27;20.05;;;4.47;;
35909;SDS011;22004;49.120;-0.200;2023-03-29T09:41:54;13.35;;;4.05;;
35909;SDS011;22004;49.120;-0.200;2023-03-29T09:44:26;16.40;;;4.20;;
35909;SDS011;22004;49.120;-0.200;2023-03-29T09:46:57;18.90;;;4.22;;
35909;SDS011;22004;49.120;-0.200;2023-03-29T09:49:45;15.05;;;4.85;;
35909;SDS011;22004;49.120;-0.200;2023-03-29T09:52:14;16.83;;;4.85;;
35909;SDS011;22004;49.120;-0.200;2023-03-29T09:54:41;13.38;;;4.28;;
35909;SDS011;22004;49.120;-0.200;2023-03-29T09:57:14;19.45;;;5.43;;
35909;SDS011;22004;49.120;-0.200;2023-03-29T09:59:41;20.65;;;4.78;;
35909;SDS011;22004;49.120;-0.200;2023-03-29T10:02:08;19.58;;;5.05;;
35909;SDS011;22004;49.120;-0.200;2023-03-29T10:04:36;22.42;;;5.25;;
35909;SDS011;22004;49.120;-0.200;2023-03-29T10:07:03;20.25;;;4.35;;
35909;SDS011;22004;49.120;-0.200;2023-03-29T10:09:30;22.52;;;4.90;;
35909;SDS011;22004;49.120;-0.200;2023-03-29T10:11:56;16.15;;;3.92;;
35909;SDS011;22004;49.120;-0.200;2023-03-29T10:17:02;16.98;;;4.43;;
35909;SDS011;22004;49.120;-0.200;2023-03-29T10:19:30;21.02;;;4.32;;
35909;SDS011;22004;49.120;-0.200;2023-03-29T10:22:03;13.45;;;4.00;;
35909;SDS011;22004;49.120;-0.200;2023-03-29T10:24:31;17.05;;;4.10;;
35909;SDS011;22004;49.120;-0.200;2023-03-29T10:27:05;21.42;;;4.88;;
35909;SDS011;22004;49.120;-0.200;2023-03-29T10:29:35;15.30;;;4.07;;
35909;SDS011;22004;49.120;-0.200;2023-03-29T10:34:44;11.57;;;3.97;;
35909;SDS011;22004;49.120;-0.200;2023-03-29T10:37:11;15.07;;;3.80;;
35909;SDS011;22004;49.120;-0.200;2023-03-29T10:39:40;15.32;;;4.25;;
35909;SDS011;22004;49.120;-0.200;2023-03-29T10:42:06;14.70;;;3.85;;
35909;SDS011;22004;49.120;-0.200;2023-03-29T10:44:40;12.73;;;3.03;;
35909;SDS011;22004;49.120;-0.200;2023-03-29T10:47:07;16.63;;;3.20;;
35909;SDS011;22004;49.120;-0.200;2023-03-29T10:49:38;19.92;;;4.82;;
35909;SDS011;22004;49.120;-0.200;2023-03-29T10:52:05;17.60;;;3.13;;
35909;SDS011;22004;49.120;-0.200;2023-03-29T10:54:33;17.42;;;3.17;;
35909;SDS011;22004;49.120;-0.200;2023-03-29T10:56:59;14.13;;;2.65;;
35909;SDS011;22004;49.120;-0.200;2023-03-29T10:59:30;13.13;;;2.75;;
35909;SDS011;22004;49.120;-0.200;2023-03-29T11:04:49;16.02;;;3.55;;
35909;SDS011;22004;49.120;-0.200;2023-03-29T11:10:42;13.15;;;3.85;;
35909;SDS011;22004;49.120;-0.200;2023-03-29T11:13:52;16.20;;;3.78;;
35909;SDS011;22004;49.120;-0.200;2023-03-29T11:19:19;12.40;;;3.33;;
35909;SDS011;22004;49.120;-0.200;2023-03-29T11:33:10;9.82;;;2.33;;
35909;SDS011;22004;49.120;-0.200;2023-03-29T11:38:23;11.65;;;2.10;;
35909;SDS011;22004;49.120;-0.200;2023-03-29T11:40:54;8.90;;;1.80;;
35909;SDS011;22004;49.120;-0.200;2023-03-29T11:43:31;11.38;;;1.98;;
35909;SDS011;22004;49.120;-0.200;2023-03-29T11:46:19;6.60;;;1.67;;
35909;SDS011;22004;49.120;-0.200;2023-03-29T11:48:51;9.93;;;2.00;;
35909;SDS011;22004;49.120;-0.200;2023-03-29T11:51:25;7.85;;;1.95;;
35909;SDS011;22004;49.120;-0.200;2023-03-29T11:56:42;7.65;;;2.22;;
35909;SDS011;22004;49.120;-0.200;2023-03-29T11:59:21;6.47;;;1.88;;
35909;SDS011;22004;49.120;-0.200;2023-03-29T12:01:58;12.88;;;2.15;;
35909;SDS011;22004;49.120;-0.200;2023-03-29T12:04:34;5.88;;;1.88;;
35909;SDS011;22004;49.120;-0.200;2023-03-29T12:07:08;7.13;;;1.85;;
35909;SDS011;22004;49.120;-0.200;2023-03-29T12:09:47;5.35;;;1.83;;
35909;SDS011;22004;49.120;-0.200;2023-03-29T12:12:19;8.00;;;2.08;;
35909;SDS011;22004;49.120;-0.200;2023-03-29T12:17:38;5.38;;;1.70;;
35909;SDS011;22004;49.120;-0.200;2023-03-29T12:20:18;8.57;;;1.55;;
35909;SDS011;22004;49.120;-0.200;2023-03-29T12:22:47;4.50;;;1.30;;
35909;SDS011;22004;49.120;-0.200;2023-03-29T12:25:15;6.40;;;1.70;;
35909;SDS011;22004;49.120;-0.200;2023-03-29T12:27:50;7.18;;;1.80;;
35909;SDS011;22004;49.120;-0.200;2023-03-29T12:33:20;5.93;;;1.70;;
35909;SDS011;22004;49.120;-0.200;2023-03-29T12:36:12;4.95;;;1.60;;
35909;SDS011;22004;49.120;-0.200;2023-03-29T12:38:54;5.25;;;1.40;;
35909;SDS011;22004;49.120;-0.200;2023-03-29T12:41:20;7.93;;;1.42;;
35909;SDS011;22004;49.120;-0.200;2023-03-29T12:43:48;7.85;;;1.40;;
35909;SDS011;22004;49.120;-0.200;2023-03-29T12:46:22;5.22;;;1.95;;
35909;SDS011;22004;49.120;-0.200;2023-03-29T12:51:21;4.43;;;1.20;;
35909;SDS011;22004;49.120;-0.200;2023-03-29T12:53:54;7.30;;;1.30;;
35909;SDS011;22004;49.120;-0.200;2023-03-29T12:56:35;3.88;;;1.38;;
35909;SDS011;22004;49.120;-0.200;2023-03-29T13:07:11;3.63;;;1.60;;
35909;SDS011;22004;49.120;-0.200;2023-03-29T13:09:47;10.18;;;1.73;;
35909;SDS011;22004;49.120;-0.200;2023-03-29T13:14:59;6.43;;;1.80;;
35909;SDS011;22004;49.120;-0.200;2023-03-29T13:17:32;6.82;;;1.30;;
35909;SDS011;22004;49.120;-0.200;2023-03-29T13:25:34;3.53;;;1.80;;
35909;SDS011;22004;49.120;-0.200;2023-03-29T13:33:52;5.85;;;1.90;;
35909;SDS011;22004;49.120;-0.200;2023-03-29T13:36:54;8.60;;;2.38;;
35909;SDS011;22004;49.120;-0.200;2023-03-29T13:39:50;5.60;;;2.20;;
35909;SDS011;22004;49.120;-0.200;2023-03-29T13:45:14;8.60;;;2.05;;
35909;SDS011;22004;49.120;-0.200;2023-03-29T13:47:59;4.85;;;1.67;;
35909;SDS011;22004;49.120;-0.200;2023-03-29T13:50:39;7.28;;;2.10;;
35909;SDS011;22004;49.120;-0.200;2023-03-29T13:53:27;5.05;;;2.13;;
35909;SDS011;22004;49.120;-0.200;2023-03-29T13:55:57;4.55;;;2.10;;
35909;SDS011;22004;49.120;-0.200;2023-03-29T13:58:31;12.50;;;2.20;;
35909;SDS011;22004;49.120;-0.200;2023-03-29T14:03:47;3.88;;;1.88;;
35909;SDS011;22004;49.120;-0.200;2023-03-29T14:06:17;5.82;;;1.70;;
35909;SDS011;22004;49.120;-0.200;2023-03-29T14:08:49;4.35;;;1.50;;
35909;SDS011;22004;49.120;-0.200;2023-03-29T14:11:29;7.63;;;1.80;;
35909;SDS011;22004;49.120;-0.200;2023-03-29T14:13:58;6.82;;;2.00;;
35909;SDS011;22004;49.120;-0.200;2023-03-29T14:16:29;4.30;;;1.80;;
35909;SDS011;22004;49.120;-0.200;2023-03-29T14:18:57;3.65;;;1.90;;
35909;SDS011;22004;49.120;-0.200;2023-03-29T14:21:23;6.35;;;2.05;;
35909;SDS011;22004;49.120;-0.200;2023-03-29T14:23:53;5.97;;;2.08;;
35909;SDS011;22004;49.120;-0.200;2023-03-29T14:26:22;9.35;;;1.90;;
35909;SDS011;22004;49.120;-0.200;2023-03-29T14:28:54;4.70;;;1.67;;
35909;SDS011;22004;49.120;-0.200;2023-03-29T14:31:22;4.50;;;1.90;;
35909;SDS011;22004;49.120;-0.200;2023-03-29T14:33:53;5.90;;;2.38;;
35909;SDS011;22004;49.120;-0.200;2023-03-29T14:36:21;7.30;;;2.10;;
35909;SDS011;22004;49.120;-0.200;2023-03-29T14:38:48;7.07;;;2.30;;
35909;SDS011;22004;49.120;-0.200;2023-03-29T14:41:16;7.50;;;2.15;;
35909;SDS011;22004;49.120;-0.200;2023-03-29T14:43:42;8.85;;;2.45;;
35909;SDS011;22004;49.120;-0.200;2023-03-29T14:46:09;4.20;;;1.85;;
35909;SDS011;22004;49.120;-0.200;2023-03-29T14:48:36;8.93;;;2.47;;
35909;SDS011;22004;49.120;-0.200;2023-03-29T14:51:02;4.68;;;2.17;;
35909;SDS011;22004;49.120;-0.200;2023-03-29T14:53:28;5.15;;;2.30;;
35909;SDS011;22004;49.120;-0.200;2023-03-29T14:55:56;7.85;;;2.08;;
35909;SDS011;22004;49.120;-0.200;2023-03-29T14:58:23;6.68;;;2.33;;
35909;SDS011;22004;49.120;-0.200;2023-03-29T15:00:52;6.60;;;2.42;;
35909;SDS011;22004;49.120;-0.200;2023-03-29T15:03:18;11.40;;;2.38;;
35909;SDS011;22004;49.120;-0.200;2023-03-29T15:06:02;8.23;;;2.10;;
35909;SDS011;22004;49.120;-0.200;2023-03-29T15:08:31;9.45;;;2.13;;
35909;SDS011;22004;49.120;-0.200;2023-03-29T15:10:59;9.68;;;2.20;;
35909;SDS011;22004;49.120;-0.200;2023-03-29T15:13:25;8.90;;;2.88;;
35909;SDS011;22004;49.120;-0.200;2023-03-29T15:15:56;3.90;;;2.13;;
35909;SDS011;22004;49.120;-0.200;2023-03-29T15:18:35;7.53;;;2.25;;
35909;SDS011;22004;49.120;-0.200;2023-03-29T15:21:04;10.98;;;2.58;;
35909;SDS011;22004;49.120;-0.200;2023-03-29T15:23:37;5.47;;;2.53;;
35909;SDS011;22004;49.120;-0.200;2023-03-29T15:26:11;8.40;;;2.15;;
35909;SDS011;22004;49.120;-0.200;2023-03-29T15:28:52;11.07;;;2.17;;
35909;SDS011;22004;49.120;-0.200;2023-03-29T15:31:32;13.27;;;2.80;;
35909;SDS011;22004;49.120;-0.200;2023-03-29T15:34:03;7.53;;;2.40;;
35909;SDS011;22004;49.120;-0.200;2023-03-29T15:36:42;6.68;;;2.28;;
35909;SDS011;22004;49.120;-0.200;2023-03-29T15:39:12;10.77;;;3.13;;
35909;SDS011;22004;49.120;-0.200;2023-03-29T15:41:39;8.77;;;2.67;;
35909;SDS011;22004;49.120;-0.200;2023-03-29T15:44:05;6.00;;;2.35;;
35909;SDS011;22004;49.120;-0.200;2023-03-29T15:46:31;6.00;;;2.15;;
35909;SDS011;22004;49.120;-0.200;2023-03-29T15:48:56;5.72;;;2.00;;
35909;SDS011;22004;49.120;-0.200;2023-03-29T15:51:22;7.38;;;2.50;;
35909;SDS011;22004;49.120;-0.200;2023-03-29T15:53:48;6.28;;;2.42;;
35909;SDS011;22004;49.120;-0.200;2023-03-29T15:56:16;4.97;;;2.20;;
35909;SDS011;22004;49.120;-0.200;2023-03-29T15:58:44;8.00;;;2.58;;
35909;SDS011;22004;49.120;-0.200;2023-03-29T16:03:57;10.07;;;2.80;;
35909;SDS011;22004;49.120;-0.200;2023-03-29T16:06:23;7.88;;;2.70;;
35909;SDS011;22004;49.120;-0.200;2023-03-29T16:08:48;7.07;;;2.88;;
35909;SDS011;22004;49.120;-0.200;2023-03-29T16:11:14;6.90;;;2.92;;
35909;SDS011;22004;49.120;-0.200;2023-03-29T16:13:39;7.80;;;2.70;;